This is the latest recevied weather packets stored in our database for station/object EA7RX-4. If no packets are shown the sender has not sent any weather packets the latest 10 day(s).
| Time | Temp. | Humidity | Pressure | Rain* | Wind** | Luminosity | Snow |
|---|---|---|---|---|---|---|---|
| 1788064803 | 16.67° C | 39% | 1017.9 hPa | 0 mm | - | 0 W/m² | - |
| 1788064203 | 17.78° C | 38% | 1017.9 hPa | 0 mm | - | 0 W/m² | - |
| 1788063603 | 18.33° C | 35% | 1017.9 hPa | 0 mm | - | 0 W/m² | - |
| 1788063003 | 18.33° C | 34% | 1017.8 hPa | 0 mm | - | 0 W/m² | - |
| 1788062403 | 18.33° C | 35% | 1017.9 hPa | 0 mm | - | 0 W/m² | - |
| 1788061803 | 17.78° C | 37% | 1017.8 hPa | 0 mm | - | 0 W/m² | - |
| 1788061203 | 17.78° C | 38% | 1017.8 hPa | 0 mm | - | 0 W/m² | - |
| 1788060603 | 16.67° C | 40% | 1018 hPa | 0 mm | - | 0 W/m² | - |
| 1788060003 | 16.67° C | 41% | 1017.8 hPa | 0 mm | - | 0 W/m² | - |
| 1788059403 | 17.22° C | 40% | 1017.9 hPa | 0 mm | - | 0 W/m² | - |
| 1788058803 | 17.22° C | 40% | 1018 hPa | 0 mm | - | 0 W/m² | - |
| 1788058203 | 17.78° C | 39% | 1017.8 hPa | 0 mm | - | 0 W/m² | - |
| 1788057603 | 17.78° C | 37% | 1018 hPa | 0 mm | - | 0 W/m² | - |
| 1788057003 | 18.33° C | 37% | 1018.1 hPa | 0 mm | - | 0 W/m² | - |
| 1788056403 | 18.33° C | 36% | 1018 hPa | 0 mm | - | 0 W/m² | - |
| 1788055803 | 18.89° C | 36% | 1018.1 hPa | 0 mm | - | 0 W/m² | - |
| 1788055203 | 19.44° C | 34% | 1017.9 hPa | 0 mm | - | 0 W/m² | - |
| 1788054603 | 19.44° C | 34% | 1017.9 hPa | 0 mm | - | 0 W/m² | - |
| 1788054003 | 20.56° C | 32% | 1018.1 hPa | 0 mm | - | 0 W/m² | - |
| 1788053403 | 19.44° C | 32% | 1018 hPa | 0 mm | - | 0 W/m² | - |
| 1788052803 | 19.44° C | 33% | 1018.2 hPa | 0 mm | - | 0 W/m² | - |
| 1788052204 | 19.44° C | 33% | 1018.6 hPa | 0 mm | - | 0 W/m² | - |
| 1788051603 | 19.44° C | 33% | 1018.5 hPa | 0 mm | - | 0 W/m² | - |
| 1788051003 | 19.44° C | 32% | 1018.3 hPa | 0 mm | - | 0 W/m² | - |
| 1788050403 | 19.44° C | 32% | 1018.5 hPa | 0 mm | - | 0 W/m² | - |
* Rain latest hour (hover to see other rain measurements)
** Current wind speed in m/s (hover to see current wind gust speed)